Terminal Aerodrome Forecast
Issued by NWS Duluth, MN

Home | Current Version | Previous Version | Text Only | Print | Product List | Glossary On
Versions: 1 2 3 4 5 6 7 8 9 10 11 12 13 14 15 16 17 18 19 20 21 22 23 24
000
FTUS43 KDLH 151731
TAFINL
TAF
KINL 151731Z 1518/1618 VRB04KT P6SM SCT030
     FM152200 11005KT P6SM SCT050 BKN150
     FM160800 14004KT P6SM BKN090
     FM161100 12004KT P6SM VCSH BKN050
     FM161500 10006KT 6SM -SHRA OVC020
     FM161700 11006KT 6SM SHRA BR OVC015=

USA.gov is the U.S. government's official web portal to all federal, state and local government web resources and services.